Shipston-on-Stour, United Kingdom
Current Conditions -  °F | °C
As of 10:20 PM on Friday 21 Nov 2014 (Local Time) from EGTK Reporting Station
Haze Haze  
Wind Chill:   Ceiling: 700
Heat Index:   Visibility: 2.7mi
Dew Point:   Wind: 6mph
Humidity: 100%   Direction: 140°SE
Pressure: 29.88"   Gusts: NA
Location:  52.06°N, 1.63°W
Report Text: EGTK 212220Z 14005KT 4400 BR OVC007 07/07 Q1012
Loading
Personal Weather Stations






























Interactive Weather Map New forecast layout! Learn more

10-Day Weather Forecast

Advertisements
Track Severe Weather on mobile